Etusivu
METAR-TAF:

METAR-TAF

Lentoasemat :

Surgutin kansainvälinen lentoasema

Surgut, Venäjä

Leveyspiiri: 61-15N, Pituuspiiri: 073-30E, korkeus merenpinnasta: 44 m

Tämänhetkinen sää

Tämä raportti tehtiin 20 minuuttia sitten, kello 22.00 UTC
Tuuli 8 kn koillisesta
Lämpötila 18°C
Kosteus 73%
Ilmanpaine 1008 hPa
Näkyvyys 10 km tai enemmän
ei pilviä alle 1500 m:ssä eikä cumulonimbus-pilviä

METAR: USRR 172200Z 04004MPS CAVOK 18/13 Q1008 R07/CLRD60 NOSIG RMK QFE751

Aika: 03:20 (22:20 UTC)

Sääennuste

Tämä raportti tehtiin 2 tuntia ja 38 minuuttia sitten, kello 19.42 UTC
Ennuste voimassa 17. päivästä klo 21 UTC - 18. päivään klo 21 UTC
Tuuli 10 kn koillisesta puuskistuen 19 kn:hen
Näkyvyys 10 km tai enemmän
Hajanaisia pilviä 2000 ft:n korkeudessa

TAF: USRR 171942Z 1721/1821 04005G10MPS 9999 SCT020

Säähavainnot ja -ennusteet yli 4000 lentoasemalta (METAR- ja TAF-raportit).

Käytössä olevat sääasemat on merkitty karttaan keltaisilla ja punaisilla pisteillä.

Aseta hiiri pisteen päälle nähdäksesi sääaseman nimen.

Klikkaa sitten nähdäksesi säähavainnot ja -ennusteet.

Kartan vaihtaminen: klikkaa mustalla rastilla varustettuja vihreitä pisteitä, niin voit zoomata sisään; viivalla varustettua vihreää pistettä, niin voit zoomata ulos tai vihreitä nuolia, niin pääset viereisille kartoille.


METAR-TAF: